sensor_id;sensor_type;location;lat;lon;timestamp;P1;durP1;ratioP1;P2;durP2;ratioP2
42200;SDS011;27869;51.442;7.540;2023-12-20T00:02:13;11.65;;;5.22;;
42200;SDS011;27869;51.442;7.540;2023-12-20T00:04:40;13.10;;;5.72;;
42200;SDS011;27869;51.442;7.540;2023-12-20T00:07:07;13.10;;;5.45;;
42200;SDS011;27869;51.442;7.540;2023-12-20T00:09:33;12.45;;;5.28;;
42200;SDS011;27869;51.442;7.540;2023-12-20T00:12:00;12.00;;;4.93;;
42200;SDS011;27869;51.442;7.540;2023-12-20T00:14:27;12.25;;;4.55;;
42200;SDS011;27869;51.442;7.540;2023-12-20T00:16:55;11.88;;;4.75;;
42200;SDS011;27869;51.442;7.540;2023-12-20T00:19:22;11.27;;;4.28;;
42200;SDS011;27869;51.442;7.540;2023-12-20T00:21:49;11.82;;;4.43;;
42200;SDS011;27869;51.442;7.540;2023-12-20T00:24:16;11.40;;;4.25;;
42200;SDS011;27869;51.442;7.540;2023-12-20T00:26:43;13.77;;;4.75;;
42200;SDS011;27869;51.442;7.540;2023-12-20T00:29:10;11.48;;;3.92;;
42200;SDS011;27869;51.442;7.540;2023-12-20T00:31:37;14.38;;;4.25;;
42200;SDS011;27869;51.442;7.540;2023-12-20T00:34:05;12.82;;;4.85;;
42200;SDS011;27869;51.442;7.540;2023-12-20T00:36:32;12.23;;;4.38;;
42200;SDS011;27869;51.442;7.540;2023-12-20T00:38:59;11.95;;;4.43;;
42200;SDS011;27869;51.442;7.540;2023-12-20T00:41:26;11.38;;;4.53;;
42200;SDS011;27869;51.442;7.540;2023-12-20T00:43:52;13.20;;;4.82;;
42200;SDS011;27869;51.442;7.540;2023-12-20T00:46:19;14.40;;;5.00;;
42200;SDS011;27869;51.442;7.540;2023-12-20T00:48:46;12.13;;;4.45;;
42200;SDS011;27869;51.442;7.540;2023-12-20T00:51:14;12.50;;;4.97;;
42200;SDS011;27869;51.442;7.540;2023-12-20T00:53:41;12.63;;;4.75;;
42200;SDS011;27869;51.442;7.540;2023-12-20T00:56:08;12.48;;;4.60;;
42200;SDS011;27869;51.442;7.540;2023-12-20T00:58:35;12.15;;;4.32;;
42200;SDS011;27869;51.442;7.540;2023-12-20T01:01:02;14.02;;;4.07;;
42200;SDS011;27869;51.442;7.540;2023-12-20T01:03:29;11.52;;;4.28;;
42200;SDS011;27869;51.442;7.540;2023-12-20T01:05:56;11.40;;;4.22;;
42200;SDS011;27869;51.442;7.540;2023-12-20T01:08:24;13.45;;;4.63;;
42200;SDS011;27869;51.442;7.540;2023-12-20T01:10:51;12.98;;;4.20;;
42200;SDS011;27869;51.442;7.540;2023-12-20T01:13:18;12.07;;;3.60;;
42200;SDS011;27869;51.442;7.540;2023-12-20T01:15:45;12.15;;;3.50;;
42200;SDS011;27869;51.442;7.540;2023-12-20T01:18:13;13.50;;;3.45;;
42200;SDS011;27869;51.442;7.540;2023-12-20T01:20:40;11.65;;;3.38;;
42200;SDS011;27869;51.442;7.540;2023-12-20T01:23:07;10.55;;;3.25;;
42200;SDS011;27869;51.442;7.540;2023-12-20T01:25:36;12.88;;;2.85;;
42200;SDS011;27869;51.442;7.540;2023-12-20T01:28:03;11.60;;;3.00;;
42200;SDS011;27869;51.442;7.540;2023-12-20T01:30:30;11.02;;;3.00;;
42200;SDS011;27869;51.442;7.540;2023-12-20T01:32:57;12.70;;;2.70;;
42200;SDS011;27869;51.442;7.540;2023-12-20T01:35:25;9.38;;;2.40;;
42200;SDS011;27869;51.442;7.540;2023-12-20T01:37:52;11.38;;;2.70;;
42200;SDS011;27869;51.442;7.540;2023-12-20T01:40:21;12.50;;;2.60;;
42200;SDS011;27869;51.442;7.540;2023-12-20T01:42:58;14.18;;;3.22;;
42200;SDS011;27869;51.442;7.540;2023-12-20T01:45:26;13.27;;;3.00;;
42200;SDS011;27869;51.442;7.540;2023-12-20T01:47:53;12.73;;;2.90;;
42200;SDS011;27869;51.442;7.540;2023-12-20T01:50:20;9.75;;;2.50;;
42200;SDS011;27869;51.442;7.540;2023-12-20T01:52:48;10.50;;;2.55;;
42200;SDS011;27869;51.442;7.540;2023-12-20T01:55:17;11.82;;;2.80;;
42200;SDS011;27869;51.442;7.540;2023-12-20T01:57:44;9.68;;;2.60;;
42200;SDS011;27869;51.442;7.540;2023-12-20T02:00:14;13.48;;;2.78;;
42200;SDS011;27869;51.442;7.540;2023-12-20T02:02:41;13.00;;;3.05;;
42200;SDS011;27869;51.442;7.540;2023-12-20T02:05:09;10.07;;;2.63;;
42200;SDS011;27869;51.442;7.540;2023-12-20T02:07:37;11.20;;;2.90;;
42200;SDS011;27869;51.442;7.540;2023-12-20T02:10:04;11.35;;;2.88;;
42200;SDS011;27869;51.442;7.540;2023-12-20T02:12:31;12.65;;;3.20;;
42200;SDS011;27869;51.442;7.540;2023-12-20T02:14:58;13.18;;;3.53;;
42200;SDS011;27869;51.442;7.540;2023-12-20T02:17:26;12.45;;;3.00;;
42200;SDS011;27869;51.442;7.540;2023-12-20T02:19:54;11.00;;;2.67;;
42200;SDS011;27869;51.442;7.540;2023-12-20T02:22:22;10.82;;;2.65;;
42200;SDS011;27869;51.442;7.540;2023-12-20T02:24:49;11.20;;;2.50;;
42200;SDS011;27869;51.442;7.540;2023-12-20T02:27:15;12.90;;;2.75;;
42200;SDS011;27869;51.442;7.540;2023-12-20T02:29:45;11.05;;;2.47;;
42200;SDS011;27869;51.442;7.540;2023-12-20T02:32:13;11.95;;;2.45;;
42200;SDS011;27869;51.442;7.540;2023-12-20T02:34:40;10.85;;;2.30;;
42200;SDS011;27869;51.442;7.540;2023-12-20T02:37:07;10.65;;;2.50;;
42200;SDS011;27869;51.442;7.540;2023-12-20T02:39:35;8.88;;;2.30;;
42200;SDS011;27869;51.442;7.540;2023-12-20T02:42:02;11.80;;;2.00;;
42200;SDS011;27869;51.442;7.540;2023-12-20T02:44:29;9.07;;;2.03;;
42200;SDS011;27869;51.442;7.540;2023-12-20T02:46:56;11.45;;;2.08;;
42200;SDS011;27869;51.442;7.540;2023-12-20T02:49:23;10.77;;;1.90;;
42200;SDS011;27869;51.442;7.540;2023-12-20T02:51:50;11.05;;;2.03;;
42200;SDS011;27869;51.442;7.540;2023-12-20T02:54:17;12.82;;;2.10;;
42200;SDS011;27869;51.442;7.540;2023-12-20T02:56:45;11.05;;;2.25;;
42200;SDS011;27869;51.442;7.540;2023-12-20T02:59:12;12.25;;;2.08;;
42200;SDS011;27869;51.442;7.540;2023-12-20T03:01:41;11.82;;;2.00;;
42200;SDS011;27869;51.442;7.540;2023-12-20T03:04:08;14.57;;;2.70;;
42200;SDS011;27869;51.442;7.540;2023-12-20T03:06:35;8.85;;;2.10;;
42200;SDS011;27869;51.442;7.540;2023-12-20T03:09:02;12.55;;;3.38;;
42200;SDS011;27869;51.442;7.540;2023-12-20T03:11:29;13.48;;;3.08;;
42200;SDS011;27869;51.442;7.540;2023-12-20T03:13:58;11.40;;;2.83;;
42200;SDS011;27869;51.442;7.540;2023-12-20T03:16:24;12.45;;;3.25;;
42200;SDS011;27869;51.442;7.540;2023-12-20T03:18:51;13.70;;;3.40;;
42200;SDS011;27869;51.442;7.540;2023-12-20T03:21:18;13.70;;;2.92;;
42200;SDS011;27869;51.442;7.540;2023-12-20T03:23:45;13.30;;;2.92;;
42200;SDS011;27869;51.442;7.540;2023-12-20T03:26:12;13.15;;;3.35;;
42200;SDS011;27869;51.442;7.540;2023-12-20T03:28:39;13.35;;;3.45;;
42200;SDS011;27869;51.442;7.540;2023-12-20T03:31:07;15.18;;;3.22;;
42200;SDS011;27869;51.442;7.540;2023-12-20T03:33:36;13.60;;;3.30;;
42200;SDS011;27869;51.442;7.540;2023-12-20T03:36:02;12.63;;;3.17;;
42200;SDS011;27869;51.442;7.540;2023-12-20T03:38:29;14.93;;;3.60;;
42200;SDS011;27869;51.442;7.540;2023-12-20T03:40:56;10.95;;;2.40;;
42200;SDS011;27869;51.442;7.540;2023-12-20T03:43:23;15.73;;;3.10;;
42200;SDS011;27869;51.442;7.540;2023-12-20T03:45:50;14.65;;;3.15;;
42200;SDS011;27869;51.442;7.540;2023-12-20T03:48:18;14.50;;;2.88;;
42200;SDS011;27869;51.442;7.540;2023-12-20T03:50:45;11.88;;;2.70;;
42200;SDS011;27869;51.442;7.540;2023-12-20T03:53:12;12.00;;;2.42;;
42200;SDS011;27869;51.442;7.540;2023-12-20T03:55:39;10.35;;;2.75;;
42200;SDS011;27869;51.442;7.540;2023-12-20T03:58:06;14.48;;;3.42;;
42200;SDS011;27869;51.442;7.540;2023-12-20T04:00:32;13.80;;;2.38;;
42200;SDS011;27869;51.442;7.540;2023-12-20T04:02:59;15.93;;;2.50;;
42200;SDS011;27869;51.442;7.540;2023-12-20T04:05:27;12.57;;;2.78;;
42200;SDS011;27869;51.442;7.540;2023-12-20T04:07:54;13.20;;;2.40;;
42200;SDS011;27869;51.442;7.540;2023-12-20T04:10:21;16.42;;;2.58;;
42200;SDS011;27869;51.442;7.540;2023-12-20T04:12:48;16.05;;;3.33;;
42200;SDS011;27869;51.442;7.540;2023-12-20T04:15:15;13.20;;;2.60;;
42200;SDS011;27869;51.442;7.540;2023-12-20T04:17:42;13.55;;;2.53;;
42200;SDS011;27869;51.442;7.540;2023-12-20T04:20:09;12.00;;;2.33;;
42200;SDS011;27869;51.442;7.540;2023-12-20T04:22:37;17.60;;;2.60;;
42200;SDS011;27869;51.442;7.540;2023-12-20T04:25:04;16.42;;;2.75;;
42200;SDS011;27869;51.442;7.540;2023-12-20T04:27:32;13.90;;;2.28;;
42200;SDS011;27869;51.442;7.540;2023-12-20T04:29:59;15.13;;;2.88;;
42200;SDS011;27869;51.442;7.540;2023-12-20T04:32:26;14.02;;;2.78;;
42200;SDS011;27869;51.442;7.540;2023-12-20T04:34:52;9.70;;;2.33;;
42200;SDS011;27869;51.442;7.540;2023-12-20T04:37:19;13.93;;;2.83;;
42200;SDS011;27869;51.442;7.540;2023-12-20T04:39:47;13.55;;;2.90;;
42200;SDS011;27869;51.442;7.540;2023-12-20T04:42:15;13.60;;;2.90;;
42200;SDS011;27869;51.442;7.540;2023-12-20T04:44:42;16.42;;;3.08;;
42200;SDS011;27869;51.442;7.540;2023-12-20T04:47:08;17.70;;;3.20;;
42200;SDS011;27869;51.442;7.540;2023-12-20T04:49:35;14.02;;;3.13;;
42200;SDS011;27869;51.442;7.540;2023-12-20T04:52:02;17.65;;;3.55;;
42200;SDS011;27869;51.442;7.540;2023-12-20T04:54:31;14.77;;;3.03;;
42200;SDS011;27869;51.442;7.540;2023-12-20T04:56:59;13.50;;;3.20;;
42200;SDS011;27869;51.442;7.540;2023-12-20T04:59:26;15.20;;;3.30;;
42200;SDS011;27869;51.442;7.540;2023-12-20T05:01:52;14.85;;;2.92;;
42200;SDS011;27869;51.442;7.540;2023-12-20T05:04:19;15.07;;;3.20;;
42200;SDS011;27869;51.442;7.540;2023-12-20T05:06:46;16.88;;;3.67;;
42200;SDS011;27869;51.442;7.540;2023-12-20T05:09:14;15.23;;;3.03;;
42200;SDS011;27869;51.442;7.540;2023-12-20T05:11:41;13.68;;;3.13;;
42200;SDS011;27869;51.442;7.540;2023-12-20T05:14:09;21.27;;;3.80;;
42200;SDS011;27869;51.442;7.540;2023-12-20T05:16:36;15.75;;;3.40;;
42200;SDS011;27869;51.442;7.540;2023-12-20T05:19:05;16.20;;;2.85;;
42200;SDS011;27869;51.442;7.540;2023-12-20T05:21:32;16.17;;;2.95;;
42200;SDS011;27869;51.442;7.540;2023-12-20T05:23:59;14.13;;;3.05;;
42200;SDS011;27869;51.442;7.540;2023-12-20T05:26:26;15.95;;;2.95;;
42200;SDS011;27869;51.442;7.540;2023-12-20T05:28:54;18.15;;;3.28;;
42200;SDS011;27869;51.442;7.540;2023-12-20T05:31:22;14.75;;;3.03;;
42200;SDS011;27869;51.442;7.540;2023-12-20T05:33:49;15.27;;;3.22;;
42200;SDS011;27869;51.442;7.540;2023-12-20T05:36:19;13.25;;;3.60;;
42200;SDS011;27869;51.442;7.540;2023-12-20T05:38:46;13.63;;;3.38;;
42200;SDS011;27869;51.442;7.540;2023-12-20T05:41:13;16.88;;;3.47;;
42200;SDS011;27869;51.442;7.540;2023-12-20T05:43:40;16.40;;;3.40;;
42200;SDS011;27869;51.442;7.540;2023-12-20T05:46:07;12.77;;;3.45;;
42200;SDS011;27869;51.442;7.540;2023-12-20T05:48:37;16.60;;;3.00;;
42200;SDS011;27869;51.442;7.540;2023-12-20T05:51:04;15.55;;;3.70;;
42200;SDS011;27869;51.442;7.540;2023-12-20T05:53:31;17.65;;;3.90;;
42200;SDS011;27869;51.442;7.540;2023-12-20T05:55:57;16.35;;;3.55;;
42200;SDS011;27869;51.442;7.540;2023-12-20T05:58:24;17.52;;;3.53;;
42200;SDS011;27869;51.442;7.540;2023-12-20T06:00:50;19.13;;;3.78;;
42200;SDS011;27869;51.442;7.540;2023-12-20T06:03:17;16.98;;;2.95;;
42200;SDS011;27869;51.442;7.540;2023-12-20T06:05:48;16.88;;;3.88;;
42200;SDS011;27869;51.442;7.540;2023-12-20T06:08:15;15.20;;;3.20;;
42200;SDS011;27869;51.442;7.540;2023-12-20T06:10:42;16.85;;;2.90;;
42200;SDS011;27869;51.442;7.540;2023-12-20T06:13:08;14.50;;;3.17;;
42200;SDS011;27869;51.442;7.540;2023-12-20T06:15:37;12.32;;;2.92;;
42200;SDS011;27869;51.442;7.540;2023-12-20T06:18:04;15.65;;;3.13;;
42200;SDS011;27869;51.442;7.540;2023-12-20T06:20:30;19.08;;;3.63;;
42200;SDS011;27869;51.442;7.540;2023-12-20T06:22:59;18.58;;;3.67;;
42200;SDS011;27869;51.442;7.540;2023-12-20T06:25:26;16.67;;;4.70;;
42200;SDS011;27869;51.442;7.540;2023-12-20T06:27:53;13.95;;;3.30;;
42200;SDS011;27869;51.442;7.540;2023-12-20T06:30:20;16.75;;;3.25;;
42200;SDS011;27869;51.442;7.540;2023-12-20T06:32:47;16.73;;;3.45;;
42200;SDS011;27869;51.442;7.540;2023-12-20T06:35:14;16.00;;;3.50;;
42200;SDS011;27869;51.442;7.540;2023-12-20T06:37:41;17.02;;;4.10;;
42200;SDS011;27869;51.442;7.540;2023-12-20T06:40:10;18.15;;;3.25;;
42200;SDS011;27869;51.442;7.540;2023-12-20T06:42:37;17.20;;;3.40;;
42200;SDS011;27869;51.442;7.540;2023-12-20T06:45:04;14.95;;;3.40;;
42200;SDS011;27869;51.442;7.540;2023-12-20T06:47:32;16.05;;;3.28;;
42200;SDS011;27869;51.442;7.540;2023-12-20T06:49:59;12.70;;;3.45;;
42200;SDS011;27869;51.442;7.540;2023-12-20T06:52:26;15.88;;;3.10;;
42200;SDS011;27869;51.442;7.540;2023-12-20T06:54:53;14.93;;;3.08;;
42200;SDS011;27869;51.442;7.540;2023-12-20T06:57:21;12.80;;;2.80;;
42200;SDS011;27869;51.442;7.540;2023-12-20T06:59:48;17.27;;;3.22;;
42200;SDS011;27869;51.442;7.540;2023-12-20T07:02:17;12.07;;;2.78;;
42200;SDS011;27869;51.442;7.540;2023-12-20T07:04:44;14.93;;;3.22;;
42200;SDS011;27869;51.442;7.540;2023-12-20T07:07:10;14.88;;;3.13;;
42200;SDS011;27869;51.442;7.540;2023-12-20T07:09:37;16.45;;;3.53;;
42200;SDS011;27869;51.442;7.540;2023-12-20T07:12:06;14.90;;;3.25;;
42200;SDS011;27869;51.442;7.540;2023-12-20T07:14:34;16.20;;;3.08;;
42200;SDS011;27869;51.442;7.540;2023-12-20T07:17:01;13.65;;;2.67;;
42200;SDS011;27869;51.442;7.540;2023-12-20T07:19:28;13.25;;;2.65;;
42200;SDS011;27869;51.442;7.540;2023-12-20T07:21:55;15.02;;;2.90;;
42200;SDS011;27869;51.442;7.540;2023-12-20T07:24:22;19.88;;;3.88;;
42200;SDS011;27869;51.442;7.540;2023-12-20T07:26:48;15.15;;;2.95;;
42200;SDS011;27869;51.442;7.540;2023-12-20T07:29:16;16.55;;;3.08;;
42200;SDS011;27869;51.442;7.540;2023-12-20T07:31:44;15.23;;;3.08;;
42200;SDS011;27869;51.442;7.540;2023-12-20T07:34:11;13.77;;;2.95;;
42200;SDS011;27869;51.442;7.540;2023-12-20T07:36:38;14.90;;;3.17;;
42200;SDS011;27869;51.442;7.540;2023-12-20T07:39:04;18.60;;;3.40;;
42200;SDS011;27869;51.442;7.540;2023-12-20T07:41:31;17.08;;;3.80;;
42200;SDS011;27869;51.442;7.540;2023-12-20T07:43:58;14.00;;;2.80;;
42200;SDS011;27869;51.442;7.540;2023-12-20T07:46:25;18.60;;;4.25;;
42200;SDS011;27869;51.442;7.540;2023-12-20T07:48:53;15.50;;;3.38;;
42200;SDS011;27869;51.442;7.540;2023-12-20T07:51:20;14.63;;;2.85;;
42200;SDS011;27869;51.442;7.540;2023-12-20T07:53:47;12.50;;;2.95;;
42200;SDS011;27869;51.442;7.540;2023-12-20T07:56:14;12.85;;;2.53;;
42200;SDS011;27869;51.442;7.540;2023-12-20T07:58:42;16.23;;;2.38;;
42200;SDS011;27869;51.442;7.540;2023-12-20T08:01:09;20.48;;;3.83;;
42200;SDS011;27869;51.442;7.540;2023-12-20T08:03:36;15.43;;;2.50;;
42200;SDS011;27869;51.442;7.540;2023-12-20T08:06:05;13.38;;;2.28;;
42200;SDS011;27869;51.442;7.540;2023-12-20T08:08:32;13.90;;;2.40;;
42200;SDS011;27869;51.442;7.540;2023-12-20T08:10:59;15.93;;;2.88;;
42200;SDS011;27869;51.442;7.540;2023-12-20T08:13:26;16.08;;;2.63;;
42200;SDS011;27869;51.442;7.540;2023-12-20T08:15:52;17.02;;;2.95;;
42200;SDS011;27869;51.442;7.540;2023-12-20T08:18:21;16.52;;;3.25;;
42200;SDS011;27869;51.442;7.540;2023-12-20T08:20:48;12.32;;;2.53;;
42200;SDS011;27869;51.442;7.540;2023-12-20T08:23:19;16.80;;;2.65;;
42200;SDS011;27869;51.442;7.540;2023-12-20T08:25:46;12.60;;;2.30;;
42200;SDS011;27869;51.442;7.540;2023-12-20T08:28:14;16.25;;;3.53;;
42200;SDS011;27869;51.442;7.540;2023-12-20T08:30:41;15.23;;;2.40;;
42200;SDS011;27869;51.442;7.540;2023-12-20T08:33:08;14.93;;;3.10;;
42200;SDS011;27869;51.442;7.540;2023-12-20T08:38:04;14.85;;;2.55;;
42200;SDS011;27869;51.442;7.540;2023-12-20T08:40:33;18.60;;;4.15;;
42200;SDS011;27869;51.442;7.540;2023-12-20T08:43:00;17.38;;;3.25;;
42200;SDS011;27869;51.442;7.540;2023-12-20T08:45:27;16.55;;;3.30;;
42200;SDS011;27869;51.442;7.540;2023-12-20T08:47:54;32.05;;;10.27;;
42200;SDS011;27869;51.442;7.540;2023-12-20T08:50:21;25.90;;;7.82;;
42200;SDS011;27869;51.442;7.540;2023-12-20T08:52:48;18.33;;;2.92;;
42200;SDS011;27869;51.442;7.540;2023-12-20T08:55:15;16.05;;;3.13;;
42200;SDS011;27869;51.442;7.540;2023-12-20T08:57:44;15.48;;;2.90;;
42200;SDS011;27869;51.442;7.540;2023-12-20T09:00:12;12.70;;;2.50;;
42200;SDS011;27869;51.442;7.540;2023-12-20T09:02:41;15.77;;;2.90;;
42200;SDS011;27869;51.442;7.540;2023-12-20T09:05:08;16.52;;;2.67;;
42200;SDS011;27869;51.442;7.540;2023-12-20T09:07:35;12.70;;;2.40;;
42200;SDS011;27869;51.442;7.540;2023-12-20T09:10:02;15.63;;;3.03;;
42200;SDS011;27869;51.442;7.540;2023-12-20T09:12:29;18.65;;;3.67;;
42200;SDS011;27869;51.442;7.540;2023-12-20T09:14:57;13.15;;;2.92;;
42200;SDS011;27869;51.442;7.540;2023-12-20T09:17:26;17.17;;;3.30;;
42200;SDS011;27869;51.442;7.540;2023-12-20T09:19:53;17.83;;;3.25;;
42200;SDS011;27869;51.442;7.540;2023-12-20T09:22:20;14.30;;;3.50;;
42200;SDS011;27869;51.442;7.540;2023-12-20T09:24:47;13.80;;;2.40;;
42200;SDS011;27869;51.442;7.540;2023-12-20T09:27:14;16.40;;;2.85;;
42200;SDS011;27869;51.442;7.540;2023-12-20T09:29:41;17.70;;;3.13;;
42200;SDS011;27869;51.442;7.540;2023-12-20T09:32:09;17.17;;;2.67;;
42200;SDS011;27869;51.442;7.540;2023-12-20T09:34:36;13.73;;;2.53;;
42200;SDS011;27869;51.442;7.540;2023-12-20T09:37:03;17.08;;;2.85;;
42200;SDS011;27869;51.442;7.540;2023-12-20T09:39:30;18.92;;;2.78;;
42200;SDS011;27869;51.442;7.540;2023-12-20T09:42:00;18.65;;;2.75;;
42200;SDS011;27869;51.442;7.540;2023-12-20T09:44:29;18.55;;;2.75;;
42200;SDS011;27869;51.442;7.540;2023-12-20T09:46:58;15.57;;;2.67;;
42200;SDS011;27869;51.442;7.540;2023-12-20T09:49:28;12.90;;;2.53;;
42200;SDS011;27869;51.442;7.540;2023-12-20T09:51:56;13.32;;;2.83;;
42200;SDS011;27869;51.442;7.540;2023-12-20T09:54:23;20.48;;;4.63;;
42200;SDS011;27869;51.442;7.540;2023-12-20T09:56:51;14.35;;;2.70;;
42200;SDS011;27869;51.442;7.540;2023-12-20T09:59:18;13.43;;;2.42;;
42200;SDS011;27869;51.442;7.540;2023-12-20T10:01:45;17.00;;;3.08;;
42200;SDS011;27869;51.442;7.540;2023-12-20T10:04:12;15.77;;;2.50;;
42200;SDS011;27869;51.442;7.540;2023-12-20T10:06:41;15.32;;;2.38;;
42200;SDS011;27869;51.442;7.540;2023-12-20T10:09:09;15.52;;;2.67;;
42200;SDS011;27869;51.442;7.540;2023-12-20T10:11:37;14.00;;;2.42;;
42200;SDS011;27869;51.442;7.540;2023-12-20T10:14:05;12.13;;;2.40;;
42200;SDS011;27869;51.442;7.540;2023-12-20T10:16:32;16.98;;;2.55;;
42200;SDS011;27869;51.442;7.540;2023-12-20T10:19:00;18.40;;;2.67;;
42200;SDS011;27869;51.442;7.540;2023-12-20T10:21:27;13.35;;;2.40;;
42200;SDS011;27869;51.442;7.540;2023-12-20T10:23:55;16.00;;;2.58;;
42200;SDS011;27869;51.442;7.540;2023-12-20T10:26:24;19.25;;;2.60;;
42200;SDS011;27869;51.442;7.540;2023-12-20T10:28:53;18.05;;;2.67;;
42200;SDS011;27869;51.442;7.540;2023-12-20T10:31:27;18.27;;;2.88;;
42200;SDS011;27869;51.442;7.540;2023-12-20T10:33:55;14.23;;;2.20;;
42200;SDS011;27869;51.442;7.540;2023-12-20T10:36:24;14.77;;;2.58;;
42200;SDS011;27869;51.442;7.540;2023-12-20T10:38:53;14.13;;;2.17;;
42200;SDS011;27869;51.442;7.540;2023-12-20T10:41:23;13.77;;;2.33;;
42200;SDS011;27869;51.442;7.540;2023-12-20T10:43:53;14.13;;;2.42;;
42200;SDS011;27869;51.442;7.540;2023-12-20T10:46:26;20.00;;;2.60;;
42200;SDS011;27869;51.442;7.540;2023-12-20T10:48:53;16.05;;;2.53;;
42200;SDS011;27869;51.442;7.540;2023-12-20T10:51:21;12.70;;;2.30;;
42200;SDS011;27869;51.442;7.540;2023-12-20T10:53:51;18.38;;;2.67;;
42200;SDS011;27869;51.442;7.540;2023-12-20T10:56:19;16.45;;;3.72;;
42200;SDS011;27869;51.442;7.540;2023-12-20T10:58:48;16.65;;;2.72;;
42200;SDS011;27869;51.442;7.540;2023-12-20T11:01:16;13.07;;;2.25;;
42200;SDS011;27869;51.442;7.540;2023-12-20T11:03:48;12.63;;;2.78;;
42200;SDS011;27869;51.442;7.540;2023-12-20T11:06:20;15.85;;;2.85;;
42200;SDS011;27869;51.442;7.540;2023-12-20T11:09:01;13.25;;;2.42;;
42200;SDS011;27869;51.442;7.540;2023-12-20T11:11:41;13.98;;;2.45;;
42200;SDS011;27869;51.442;7.540;2023-12-20T11:14:20;12.70;;;2.58;;
42200;SDS011;27869;51.442;7.540;2023-12-20T11:16:50;16.25;;;2.72;;
42200;SDS011;27869;51.442;7.540;2023-12-20T11:19:31;14.23;;;2.30;;
42200;SDS011;27869;51.442;7.540;2023-12-20T11:21:57;13.48;;;2.20;;
42200;SDS011;27869;51.442;7.540;2023-12-20T11:24:24;18.83;;;3.33;;
42200;SDS011;27869;51.442;7.540;2023-12-20T11:26:56;17.50;;;3.90;;
42200;SDS011;27869;51.442;7.540;2023-12-20T11:29:29;14.35;;;2.80;;
42200;SDS011;27869;51.442;7.540;2023-12-20T11:31:57;18.23;;;4.10;;
42200;SDS011;27869;51.442;7.540;2023-12-20T11:34:26;17.85;;;3.28;;
42200;SDS011;27869;51.442;7.540;2023-12-20T11:36:56;17.15;;;3.08;;
42200;SDS011;27869;51.442;7.540;2023-12-20T11:39:25;21.83;;;5.90;;
42200;SDS011;27869;51.442;7.540;2023-12-20T11:41:54;14.20;;;3.03;;
42200;SDS011;27869;51.442;7.540;2023-12-20T11:44:25;16.88;;;2.75;;
42200;SDS011;27869;51.442;7.540;2023-12-20T11:46:52;17.58;;;3.15;;
42200;SDS011;27869;51.442;7.540;2023-12-20T11:49:23;17.20;;;3.92;;
42200;SDS011;27869;51.442;7.540;2023-12-20T11:51:50;19.00;;;3.08;;
42200;SDS011;27869;51.442;7.540;2023-12-20T11:54:17;14.05;;;3.03;;
42200;SDS011;27869;51.442;7.540;2023-12-20T11:56:45;14.75;;;2.88;;
42200;SDS011;27869;51.442;7.540;2023-12-20T11:59:13;10.75;;;2.72;;
42200;SDS011;27869;51.442;7.540;2023-12-20T12:01:47;12.98;;;2.78;;
42200;SDS011;27869;51.442;7.540;2023-12-20T12:04:14;16.52;;;3.00;;
42200;SDS011;27869;51.442;7.540;2023-12-20T12:06:42;17.92;;;3.00;;
42200;SDS011;27869;51.442;7.540;2023-12-20T12:09:09;15.52;;;2.92;;
42200;SDS011;27869;51.442;7.540;2023-12-20T12:11:36;14.48;;;3.00;;
42200;SDS011;27869;51.442;7.540;2023-12-20T12:14:03;10.38;;;2.63;;
42200;SDS011;27869;51.442;7.540;2023-12-20T12:16:31;14.75;;;3.53;;
42200;SDS011;27869;51.442;7.540;2023-12-20T12:18:58;15.85;;;3.03;;
42200;SDS011;27869;51.442;7.540;2023-12-20T12:21:25;11.40;;;2.53;;
42200;SDS011;27869;51.442;7.540;2023-12-20T12:23:52;18.58;;;2.88;;
42200;SDS011;27869;51.442;7.540;2023-12-20T12:26:19;14.32;;;3.10;;
42200;SDS011;27869;51.442;7.540;2023-12-20T12:28:46;16.73;;;3.40;;
42200;SDS011;27869;51.442;7.540;2023-12-20T12:31:13;15.95;;;2.90;;
42200;SDS011;27869;51.442;7.540;2023-12-20T12:33:43;17.45;;;3.20;;
42200;SDS011;27869;51.442;7.540;2023-12-20T12:36:10;14.02;;;3.13;;
42200;SDS011;27869;51.442;7.540;2023-12-20T12:38:41;13.48;;;2.97;;
42200;SDS011;27869;51.442;7.540;2023-12-20T12:41:08;13.88;;;2.53;;
42200;SDS011;27869;51.442;7.540;2023-12-20T12:43:35;12.07;;;2.42;;
42200;SDS011;27869;51.442;7.540;2023-12-20T12:46:02;12.93;;;2.65;;
42200;SDS011;27869;51.442;7.540;2023-12-20T12:48:30;12.68;;;2.40;;
42200;SDS011;27869;51.442;7.540;2023-12-20T12:50:58;13.63;;;2.55;;
42200;SDS011;27869;51.442;7.540;2023-12-20T12:53:25;16.52;;;3.13;;
42200;SDS011;27869;51.442;7.540;2023-12-20T12:55:52;15.85;;;2.50;;
42200;SDS011;27869;51.442;7.540;2023-12-20T12:58:20;15.90;;;2.63;;
42200;SDS011;27869;51.442;7.540;2023-12-20T13:00:47;15.75;;;3.03;;
42200;SDS011;27869;51.442;7.540;2023-12-20T13:03:14;17.67;;;3.22;;
42200;SDS011;27869;51.442;7.540;2023-12-20T13:05:41;17.17;;;3.35;;
42200;SDS011;27869;51.442;7.540;2023-12-20T13:08:13;18.55;;;4.63;;
42200;SDS011;27869;51.442;7.540;2023-12-20T13:10:40;14.85;;;3.30;;
42200;SDS011;27869;51.442;7.540;2023-12-20T13:13:07;15.10;;;2.90;;
42200;SDS011;27869;51.442;7.540;2023-12-20T13:15:34;14.23;;;2.95;;
42200;SDS011;27869;51.442;7.540;2023-12-20T13:18:01;19.42;;;4.40;;
42200;SDS011;27869;51.442;7.540;2023-12-20T13:20:29;13.35;;;3.03;;
42200;SDS011;27869;51.442;7.540;2023-12-20T13:22:56;12.95;;;2.90;;
42200;SDS011;27869;51.442;7.540;2023-12-20T13:25:25;17.45;;;3.00;;
42200;SDS011;27869;51.442;7.540;2023-12-20T13:27:52;13.95;;;2.45;;
42200;SDS011;27869;51.442;7.540;2023-12-20T13:30:19;9.43;;;2.42;;
42200;SDS011;27869;51.442;7.540;2023-12-20T13:32:46;16.08;;;2.95;;
42200;SDS011;27869;51.442;7.540;2023-12-20T13:35:14;18.88;;;2.95;;
42200;SDS011;27869;51.442;7.540;2023-12-20T13:37:41;14.25;;;2.67;;
42200;SDS011;27869;51.442;7.540;2023-12-20T13:40:09;14.93;;;2.95;;
42200;SDS011;27869;51.442;7.540;2023-12-20T13:42:38;13.55;;;2.90;;
42200;SDS011;27869;51.442;7.540;2023-12-20T13:45:06;14.18;;;2.90;;
42200;SDS011;27869;51.442;7.540;2023-12-20T13:47:35;14.13;;;2.67;;
42200;SDS011;27869;51.442;7.540;2023-12-20T13:50:02;13.77;;;2.75;;
42200;SDS011;27869;51.442;7.540;2023-12-20T13:52:30;14.07;;;2.88;;
42200;SDS011;27869;51.442;7.540;2023-12-20T13:54:57;14.00;;;3.80;;
42200;SDS011;27869;51.442;7.540;2023-12-20T13:57:24;15.93;;;3.40;;
42200;SDS011;27869;51.442;7.540;2023-12-20T13:59:52;20.50;;;4.32;;
42200;SDS011;27869;51.442;7.540;2023-12-20T14:02:19;14.50;;;3.15;;
42200;SDS011;27869;51.442;7.540;2023-12-20T14:04:46;13.65;;;3.05;;
42200;SDS011;27869;51.442;7.540;2023-12-20T14:07:13;14.82;;;4.57;;
42200;SDS011;27869;51.442;7.540;2023-12-20T14:09:40;13.32;;;3.22;;
42200;SDS011;27869;51.442;7.540;2023-12-20T14:12:10;16.52;;;4.22;;
42200;SDS011;27869;51.442;7.540;2023-12-20T14:14:37;13.27;;;3.17;;
42200;SDS011;27869;51.442;7.540;2023-12-20T14:17:05;15.27;;;3.88;;
42200;SDS011;27869;51.442;7.540;2023-12-20T14:19:32;17.05;;;4.40;;
42200;SDS011;27869;51.442;7.540;2023-12-20T14:21:59;11.25;;;2.72;;
42200;SDS011;27869;51.442;7.540;2023-12-20T14:24:27;12.65;;;2.67;;
42200;SDS011;27869;51.442;7.540;2023-12-20T14:26:54;12.98;;;3.83;;
42200;SDS011;27869;51.442;7.540;2023-12-20T14:29:21;15.38;;;4.05;;
42200;SDS011;27869;51.442;7.540;2023-12-20T14:31:48;13.68;;;3.00;;
42200;SDS011;27869;51.442;7.540;2023-12-20T14:34:17;10.68;;;2.22;;
42200;SDS011;27869;51.442;7.540;2023-12-20T14:36:44;11.57;;;2.13;;
42200;SDS011;27869;51.442;7.540;2023-12-20T14:39:10;9.75;;;2.10;;
42200;SDS011;27869;51.442;7.540;2023-12-20T14:41:38;10.40;;;2.25;;